createdAt,value
2019-05-25T00:03:40.480Z,13.90
2019-05-25T00:08:46.831Z,14.00
2019-05-25T00:13:52.144Z,14.10
2019-05-25T00:18:57.495Z,14.00
2019-05-25T00:24:11.665Z,14.00
2019-05-25T00:29:09.828Z,13.90
2019-05-25T00:34:15.148Z,13.80
2019-05-25T00:39:21.568Z,13.80
2019-05-25T00:44:27.045Z,13.90
2019-05-25T00:49:32.399Z,14.00
2019-05-25T00:54:37.722Z,14.00
2019-05-25T00:59:43.164Z,14.10
2019-05-25T01:04:48.516Z,13.90
2019-05-25T01:09:53.835Z,13.90
2019-05-25T01:14:59.181Z,14.00
2019-05-25T01:20:06.064Z,14.00
2019-05-25T01:25:11.812Z,13.90
2019-05-25T01:30:17.647Z,13.90
2019-05-25T01:35:22.981Z,13.80
2019-05-25T01:40:28.327Z,13.90
2019-05-25T01:45:33.643Z,13.60
2019-05-25T01:50:39.016Z,13.30
2019-05-25T01:55:44.323Z,13.20
2019-05-25T02:00:49.724Z,13.20
2019-05-25T02:05:55.057Z,13.30
2019-05-25T02:11:00.363Z,13.20
2019-05-25T02:16:05.651Z,13.20
2019-05-25T02:21:10.944Z,13.30
2019-05-25T02:26:16.247Z,13.40
2019-05-25T02:31:21.567Z,13.20
2019-05-25T02:36:26.887Z,13.20
2019-05-25T02:41:32.188Z,13.20
2019-05-25T02:46:37.478Z,13.20
2019-05-25T02:51:42.803Z,13.20
2019-05-25T02:56:48.095Z,13.10
2019-05-25T03:01:53.431Z,13.10
2019-05-25T03:06:59.039Z,13.00
2019-05-25T03:12:04.433Z,12.80
2019-05-25T03:17:09.728Z,12.40
2019-05-25T03:22:15.046Z,12.40
2019-05-25T03:27:20.348Z,12.20
2019-05-25T03:32:25.652Z,12.20
2019-05-25T03:37:30.959Z,12.30
2019-05-25T03:42:36.421Z,12.40
2019-05-25T03:47:41.756Z,12.30
2019-05-25T03:52:47.049Z,12.30
2019-05-25T03:57:52.378Z,12.40
2019-05-25T04:02:57.673Z,12.40
2019-05-25T04:08:03.086Z,12.30
2019-05-25T04:13:08.379Z,12.20
2019-05-25T04:18:13.680Z,12.10
2019-05-25T04:23:19.024Z,12.20
2019-05-25T04:28:24.363Z,12.20
2019-05-25T04:33:29.648Z,12.20
2019-05-25T04:38:36.160Z,12.20
2019-05-25T04:43:41.470Z,12.10
2019-05-25T04:48:46.991Z,12.20
2019-05-25T04:53:52.774Z,12.30
2019-05-25T04:58:58.165Z,12.30
2019-05-25T05:04:03.443Z,12.40
2019-05-25T05:09:09.584Z,12.50
2019-05-25T05:14:15.029Z,12.60
2019-05-25T05:19:20.342Z,11.40
2019-05-25T05:24:25.782Z,13.10
2019-05-25T05:29:31.101Z,13.00
2019-05-25T05:34:36.554Z,13.70
2019-05-25T05:39:42.780Z,14.40
2019-05-25T05:44:49.736Z,15.00
2019-05-25T05:49:56.227Z,15.40
2019-05-25T05:55:03.555Z,15.80
2019-05-25T06:00:10.512Z,16.50
2019-05-25T06:05:16.174Z,15.80
2019-05-25T06:10:25.713Z,16.30
2019-05-25T06:15:34.004Z,16.80
2019-05-25T06:20:39.508Z,17.70
2019-05-25T06:25:45.353Z,17.50
2019-05-25T06:30:50.876Z,18.10
2019-05-25T06:35:57.269Z,18.30
2019-05-25T06:41:02.838Z,18.90
2019-05-25T06:46:08.255Z,18.90
2019-05-25T06:51:13.784Z,19.60
2019-05-25T06:56:19.061Z,20.30
2019-05-25T07:01:25.431Z,19.20
2019-05-25T07:06:31.135Z,19.70
2019-05-25T07:11:36.731Z,20.20
2019-05-25T07:16:42.346Z,20.50
2019-05-25T07:21:47.607Z,20.90
2019-05-25T07:26:52.844Z,20.00
2019-05-25T07:31:58.145Z,20.30
2019-05-25T07:37:03.624Z,20.80
2019-05-25T07:42:09.231Z,21.10
2019-05-25T07:47:15.734Z,20.50
2019-05-25T07:52:22.151Z,20.80
2019-05-25T07:57:28.716Z,20.60
2019-05-25T08:02:34.452Z,19.40
2019-05-25T08:07:39.846Z,20.80
2019-05-25T08:12:45.406Z,21.10
2019-05-25T08:17:51.284Z,21.80
2019-05-25T08:22:56.664Z,21.60
2019-05-25T08:28:02.059Z,22.50
2019-05-25T08:33:07.456Z,22.80
2019-05-25T08:38:13.088Z,22.80
2019-05-25T08:43:18.852Z,22.60
2019-05-25T08:48:24.200Z,23.40
2019-05-25T08:53:40.712Z,23.70
2019-05-25T08:58:47.937Z,23.70
2019-05-25T09:03:43.513Z,24.00
2019-05-25T09:08:49.071Z,23.20
2019-05-25T09:13:54.435Z,23.00
2019-05-25T09:18:59.903Z,24.00
2019-05-25T09:24:05.205Z,22.40
2019-05-25T09:29:10.782Z,22.20
2019-05-25T09:34:16.085Z,22.50
2019-05-25T09:39:21.576Z,22.80
2019-05-25T09:44:26.954Z,23.00
2019-05-25T09:49:32.279Z,23.10
2019-05-25T09:54:38.561Z,23.70
2019-05-25T09:59:43.976Z,23.50
2019-05-25T10:04:49.711Z,23.70
2019-05-25T10:09:55.638Z,24.80
2019-05-25T10:15:00.994Z,25.90
2019-05-25T10:20:07.100Z,25.70
2019-05-25T10:25:12.662Z,25.40
2019-05-25T10:30:20.496Z,23.70
2019-05-25T10:35:27.304Z,24.60
2019-05-25T10:40:32.648Z,23.40
2019-05-25T10:45:37.928Z,24.70
2019-05-25T10:50:44.333Z,24.70
2019-05-25T10:55:49.669Z,24.80
2019-05-25T11:00:54.955Z,26.60
2019-05-25T11:06:00.256Z,25.90
2019-05-25T11:11:05.557Z,27.40
2019-05-25T11:16:13.063Z,26.80
2019-05-25T11:21:20.462Z,26.50
2019-05-25T11:26:25.748Z,25.40
2019-05-25T11:31:31.257Z,24.20
2019-05-25T11:36:36.793Z,24.00
2019-05-25T11:41:42.122Z,23.80
2019-05-25T11:46:47.466Z,23.10
2019-05-25T11:51:53.174Z,23.00
2019-05-25T11:56:58.916Z,23.50
2019-05-25T12:02:04.218Z,24.20
2019-05-25T12:07:09.545Z,24.50
2019-05-25T12:12:14.851Z,23.80
2019-05-25T12:17:21.579Z,23.90
2019-05-25T12:22:26.883Z,23.60
2019-05-25T12:27:32.343Z,23.10
2019-05-25T12:32:37.883Z,22.60
2019-05-25T12:37:44.240Z,22.80
2019-05-25T12:42:50.822Z,22.50
2019-05-25T12:47:56.128Z,22.70
2019-05-25T12:53:01.462Z,23.00
2019-05-25T12:58:07.167Z,25.00
2019-05-25T13:03:12.697Z,27.30
2019-05-25T13:08:18.319Z,28.70
2019-05-25T13:13:23.647Z,30.00
2019-05-25T13:18:29.427Z,29.60
2019-05-25T13:23:34.720Z,28.90
2019-05-25T13:28:40.006Z,27.60
2019-05-25T13:33:45.309Z,26.10
2019-05-25T13:38:50.833Z,24.70
2019-05-25T13:43:56.144Z,23.90
2019-05-25T13:49:01.443Z,24.00
2019-05-25T13:54:07.060Z,23.80
2019-05-25T13:59:12.345Z,23.60
2019-05-25T14:04:17.627Z,23.40
2019-05-25T14:09:22.914Z,23.50
2019-05-25T14:14:28.300Z,23.70
2019-05-25T14:19:33.747Z,25.60
2019-05-25T14:24:39.039Z,26.60
2019-05-25T14:29:44.609Z,26.10
2019-05-25T14:34:49.943Z,25.70
2019-05-25T14:39:55.239Z,28.00
2019-05-25T14:45:00.651Z,28.20
2019-05-25T14:50:06.549Z,27.50
2019-05-25T14:55:12.187Z,27.00
2019-05-25T15:00:18.877Z,27.50
2019-05-25T15:05:25.143Z,29.20
2019-05-25T15:10:31.504Z,30.00
2019-05-25T15:15:37.101Z,31.00
2019-05-25T15:20:42.777Z,30.00
2019-05-25T15:25:48.256Z,27.70
2019-05-25T15:30:53.852Z,29.80
2019-05-25T15:35:59.416Z,30.40
2019-05-25T15:41:04.901Z,28.90
2019-05-25T15:46:10.277Z,27.90
2019-05-25T15:51:15.582Z,25.30
2019-05-25T15:56:20.906Z,24.50
2019-05-25T16:01:26.163Z,24.30
2019-05-25T16:06:31.472Z,24.30
2019-05-25T16:11:37.907Z,24.20
2019-05-25T16:16:43.213Z,24.10
2019-05-25T16:21:48.568Z,23.70
2019-05-25T16:26:53.922Z,23.70
2019-05-25T16:32:00.400Z,23.40
2019-05-25T16:37:05.852Z,23.20
2019-05-25T16:42:11.387Z,23.10
2019-05-25T16:47:16.911Z,22.60
2019-05-25T16:52:22.308Z,22.20
2019-05-25T16:57:27.752Z,22.00
2019-05-25T17:02:33.064Z,21.90
2019-05-25T17:07:38.363Z,21.80
2019-05-25T17:12:43.668Z,21.40
2019-05-25T17:17:50.080Z,21.40
2019-05-25T17:22:55.355Z,21.40
2019-05-25T17:28:00.687Z,21.30
2019-05-25T17:33:05.987Z,21.00
2019-05-25T17:38:11.306Z,20.70
2019-05-25T17:43:16.603Z,20.80
2019-05-25T17:48:21.918Z,21.00
2019-05-25T17:53:27.203Z,20.90
2019-05-25T17:58:32.747Z,20.70
2019-05-25T18:03:38.072Z,20.30
2019-05-25T18:08:43.367Z,20.10
2019-05-25T18:13:48.668Z,20.00
2019-05-25T18:18:54.090Z,20.00
2019-05-25T18:24:00.369Z,19.80
2019-05-25T18:29:05.771Z,19.70
2019-05-25T18:34:21.668Z,19.60
2019-05-25T18:39:18.043Z,19.40
2019-05-25T18:44:23.730Z,19.20
2019-05-25T18:49:29.032Z,19.10
2019-05-25T18:54:34.416Z,18.90
2019-05-25T18:59:39.744Z,18.60
2019-05-25T19:04:58.037Z,18.30
2019-05-25T19:09:52.283Z,18.00
2019-05-25T19:14:58.027Z,17.80
2019-05-25T19:20:03.392Z,17.90
2019-05-25T19:25:08.785Z,17.80
2019-05-25T19:30:14.660Z,17.80
2019-05-25T19:35:19.980Z,17.70
2019-05-25T19:40:25.467Z,17.60
2019-05-25T19:45:32.806Z,17.40
2019-05-25T19:50:40.389Z,17.10
2019-05-25T19:55:46.898Z,17.10
2019-05-25T20:00:52.379Z,16.90
2019-05-25T20:05:57.841Z,16.70
2019-05-25T20:11:03.255Z,16.60
2019-05-25T20:16:08.607Z,16.70
2019-05-25T20:21:13.996Z,16.60
2019-05-25T20:26:19.305Z,16.40
2019-05-25T20:31:24.739Z,16.10
2019-05-25T20:36:30.171Z,16.10
2019-05-25T20:41:36.576Z,16.20
2019-05-25T20:46:41.984Z,16.20
2019-05-25T20:51:47.297Z,16.40
2019-05-25T20:56:52.680Z,16.30
2019-05-25T21:01:57.971Z,16.20
2019-05-25T21:07:03.276Z,16.10
2019-05-25T21:12:08.650Z,16.20
2019-05-25T21:17:14.012Z,16.20
2019-05-25T21:22:20.212Z,16.20
2019-05-25T21:27:25.872Z,16.10
2019-05-25T21:32:31.160Z,16.10
2019-05-25T21:37:36.492Z,15.90
2019-05-25T21:42:42.341Z,15.70
2019-05-25T21:47:47.703Z,15.80
2019-05-25T21:52:53.424Z,15.80
2019-05-25T21:57:58.799Z,15.80
2019-05-25T22:03:04.092Z,15.70
2019-05-25T22:08:09.463Z,15.40
2019-05-25T22:13:26.876Z,15.40
2019-05-25T22:18:21.771Z,16.50
2019-05-25T22:23:27.207Z,15.20
2019-05-25T22:28:44.384Z,15.10
2019-05-25T22:33:39.574Z,14.90
2019-05-25T22:38:45.161Z,14.90
2019-05-25T22:43:50.567Z,14.80
2019-05-25T22:48:59.003Z,14.90
2019-05-25T22:54:04.343Z,14.70
2019-05-25T22:59:09.634Z,14.70
2019-05-25T23:04:14.989Z,14.80
2019-05-25T23:09:20.367Z,14.80
2019-05-25T23:14:26.667Z,14.70
2019-05-25T23:19:37.834Z,14.50
2019-05-25T23:24:43.139Z,14.50
2019-05-25T23:29:49.605Z,14.50
2019-05-25T23:34:54.884Z,14.40
2019-05-25T23:40:02.380Z,14.30
2019-05-25T23:45:08.158Z,14.30
2019-05-25T23:50:13.948Z,14.30
2019-05-25T23:55:19.579Z,14.40
